Time;durP1;ratioP1;P1;durP2;ratioP2;P2;SDS_P1;SDS_P2;PMS_P1;PMS_P2;Temp;Humidity;BMP_temperature;BMP_pressure;BME280_temperature;BME280_humidity;BME280_pressure;Samples;Min_cycle;Max_cycle;Signal;HPM_P1;HPM_P2
2024/03/03 00:01:21;;;;;;;7.28;4.32;;;11.50;68.60;;;;;;9173752;19;20018;-65
2024/03/03 00:04:32;;;;;;;7.07;4.72;;;11.40;67.90;;;;;;9172303;19;20015;-67
2024/03/03 00:07:37;;;;;;;9.32;4.78;;;11.40;67.90;;;;;;9168343;19;20014;-66
2024/03/03 00:10:45;;;;;;;9.10;5.15;;;11.40;68.00;;;;;;9170741;19;20014;-67
2024/03/03 00:13:50;;;;;;;10.50;5.13;;;11.40;67.90;;;;;;9171512;19;20010;-65
2024/03/03 00:16:58;;;;;;;10.05;4.53;;;11.40;67.90;;;;;;9172283;19;20014;-66
2024/03/03 00:20:07;;;;;;;8.90;5.03;;;11.40;67.90;;;;;;9166445;19;20021;-65
2024/03/03 00:23:15;;;;;;;7.90;4.80;;;11.40;68.00;;;;;;9172466;19;20019;-67
2024/03/03 00:26:20;;;;;;;9.68;4.85;;;11.30;68.00;;;;;;9165473;19;20439;-65
2024/03/03 00:29:28;;;;;;;9.25;5.75;;;11.30;68.00;;;;;;9171471;19;20870;-66
2024/03/03 00:32:34;;;;;;;9.05;4.72;;;11.30;68.10;;;;;;9173204;19;20038;-65
2024/03/03 00:35:44;;;;;;;10.18;5.10;;;11.30;68.10;;;;;;9172509;19;20015;-65
2024/03/03 00:38:49;;;;;;;10.48;5.18;;;11.30;68.10;;;;;;9169559;19;20021;-66
2024/03/03 00:41:57;;;;;;;10.20;5.43;;;11.30;68.10;;;;;;9171564;19;20018;-65
2024/03/03 00:45:02;;;;;;;10.13;5.95;;;11.30;68.10;;;;;;9172107;19;20025;-65
2024/03/03 00:48:10;;;;;;;9.07;5.38;;;11.30;68.20;;;;;;9170901;19;20617;-66
2024/03/03 00:51:18;;;;;;;12.88;5.55;;;11.30;68.20;;;;;;9176496;19;20019;-66
2024/03/03 00:54:26;;;;;;;8.18;5.10;;;11.40;68.20;;;;;;9181115;19;20021;-66
2024/03/03 00:57:31;;;;;;;8.63;5.30;;;11.30;68.20;;;;;;9180915;19;20033;-66
2024/03/03 01:00:39;;;;;;;13.57;5.68;;;11.30;68.20;;;;;;9181002;19;20023;-64
2024/03/03 01:03:45;;;;;;;11.27;6.38;;;11.30;68.90;;;;;;9179829;19;20021;-65
2024/03/03 01:06:55;;;;;;;8.13;4.75;;;11.30;68.30;;;;;;9176197;19;20022;-66
2024/03/03 01:10:01;;;;;;;10.35;5.53;;;11.40;68.30;;;;;;9177562;19;20487;-66
2024/03/03 01:13:08;;;;;;;9.18;5.47;;;11.40;68.40;;;;;;9180741;19;20014;-66
2024/03/03 01:16:14;;;;;;;8.40;5.55;;;11.30;68.30;;;;;;9183046;19;20025;-65
2024/03/03 01:19:22;;;;;;;11.93;6.10;;;11.30;68.40;;;;;;9180541;19;20356;-64
2024/03/03 01:22:31;;;;;;;11.00;5.38;;;11.30;68.40;;;;;;9180324;19;20014;-65
2024/03/03 01:25:39;;;;;;;8.85;5.18;;;11.30;69.00;;;;;;9182123;19;20023;-65
2024/03/03 01:28:45;;;;;;;9.85;5.88;;;11.30;68.40;;;;;;9180776;19;20029;-65
2024/03/03 01:31:53;;;;;;;9.77;5.22;;;11.30;68.50;;;;;;9183157;19;20329;-65
2024/03/03 01:34:59;;;;;;;10.68;5.35;;;11.30;68.40;;;;;;9180554;19;20011;-65
2024/03/03 01:38:10;;;;;;;11.80;5.75;;;11.30;68.50;;;;;;9175797;19;20014;-66
2024/03/03 01:41:15;;;;;;;15.52;5.85;;;11.30;68.50;;;;;;9178614;19;20022;-65
2024/03/03 01:44:24;;;;;;;10.80;6.22;;;11.30;68.50;;;;;;9182483;19;20014;-65
2024/03/03 01:47:50;;;;;;;13.45;5.47;;;11.30;68.60;;;;;;9182167;19;20018;-65
2024/03/03 01:51:00;;;;;;;10.90;5.88;;;11.30;68.60;;;;;;9178696;19;20019;-65
2024/03/03 01:54:09;;;;;;;9.07;5.63;;;11.30;68.60;;;;;;9182478;19;20025;-65
2024/03/03 01:57:21;;;;;;;11.63;5.63;;;11.30;68.60;;;;;;9181520;19;20015;-65
2024/03/03 02:00:29;;;;;;;9.60;5.70;;;11.30;68.70;;;;;;9179246;19;20078;-65
2024/03/03 02:03:37;;;;;;;10.70;5.97;;;11.20;68.60;;;;;;9180821;19;20025;-65
2024/03/03 02:06:44;;;;;;;8.80;5.43;;;11.20;68.70;;;;;;9174981;19;20007;-65
2024/03/03 02:09:55;;;;;;;10.45;5.93;;;11.20;68.70;;;;;;9178237;19;20015;-65
2024/03/03 02:13:01;;;;;;;10.07;6.10;;;11.20;68.70;;;;;;9179464;19;20015;-65
2024/03/03 02:16:10;;;;;;;8.80;5.45;;;11.20;68.70;;;;;;9177453;19;20007;-65
2024/03/03 02:19:35;;;;;;;10.05;5.35;;;11.20;68.70;;;;;;9176674;19;20025;-64
2024/03/03 02:22:46;;;;;;;10.35;6.07;;;11.20;68.80;;;;;;9179597;19;20038;-64
2024/03/03 02:25:52;;;;;;;15.23;5.93;;;11.20;68.80;;;;;;9179960;19;20018;-65
2024/03/03 02:29:00;;;;;;;13.52;6.32;;;11.20;68.80;;;;;;9176770;19;20045;-65
2024/03/03 02:32:06;;;;;;;11.85;6.13;;;11.20;68.80;;;;;;9178943;19;20015;-64
2024/03/03 02:35:14;;;;;;;13.50;5.50;;;11.10;68.90;;;;;;9175909;19;20014;-66
2024/03/03 02:38:22;;;;;;;10.32;5.50;;;11.10;68.90;;;;;;9174160;19;20094;-64
2024/03/03 02:41:30;;;;;;;15.95;6.10;;;11.10;68.90;;;;;;9179063;19;20456;-64
2024/03/03 02:44:36;;;;;;;13.23;6.35;;;11.10;68.90;;;;;;9178211;19;20039;-66
2024/03/03 02:47:44;;;;;;;12.48;5.90;;;11.00;68.90;;;;;;9179107;19;20011;-66
2024/03/03 02:50:50;;;;;;;12.20;6.75;;;11.00;69.00;;;;;;9176676;19;20021;-65
2024/03/03 02:54:00;;;;;;;9.80;5.63;;;11.00;69.00;;;;;;9177438;19;20026;-64
2024/03/03 02:57:07;;;;;;;13.55;5.90;;;11.00;69.00;;;;;;9177357;19;20019;-64
2024/03/03 03:00:15;;;;;;;11.20;6.10;;;10.90;69.00;;;;;;9178650;19;20089;-64
2024/03/03 03:03:21;;;;;;;13.35;5.97;;;11.00;69.10;;;;;;9178167;19;20058;-64
2024/03/03 03:06:29;;;;;;;13.68;6.78;;;10.90;69.10;;;;;;9174422;19;20085;-65
2024/03/03 03:09:37;;;;;;;15.55;7.50;;;10.90;69.20;;;;;;9177607;19;20021;-65
2024/03/03 03:12:45;;;;;;;10.93;5.88;;;10.90;69.10;;;;;;9176520;19;20078;-65
2024/03/03 03:15:51;;;;;;;12.35;6.15;;;10.90;69.20;;;;;;9174740;19;20482;-65
2024/03/03 03:18:59;;;;;;;11.25;5.75;;;10.90;69.20;;;;;;9175986;19;20569;-69
2024/03/03 03:22:06;;;;;;;10.82;6.25;;;10.80;69.10;;;;;;9180522;19;20022;-68
2024/03/03 03:25:16;;;;;;;12.05;6.68;;;10.80;69.20;;;;;;9176629;19;20026;-68
2024/03/03 03:28:22;;;;;;;12.88;7.07;;;10.80;69.30;;;;;;9177885;19;20380;-69
2024/03/03 03:31:30;;;;;;;14.45;6.88;;;10.80;69.30;;;;;;9176811;19;20082;-68
2024/03/03 03:34:36;;;;;;;12.30;6.95;;;10.70;69.30;;;;;;9178583;19;20018;-69
2024/03/03 03:37:44;;;;;;;11.48;6.68;;;10.80;69.50;;;;;;9177439;19;20029;-68
2024/03/03 03:40:52;;;;;;;11.82;6.03;;;10.70;69.40;;;;;;9178308;19;20011;-68
2024/03/03 03:44:01;;;;;;;11.07;6.32;;;10.70;69.50;;;;;;9178319;19;20014;-68
2024/03/03 03:47:07;;;;;;;11.15;6.40;;;10.70;69.50;;;;;;9177034;19;20019;-68
2024/03/03 03:50:15;;;;;;;11.38;6.40;;;10.70;69.50;;;;;;9177935;19;20026;-68
2024/03/03 03:53:21;;;;;;;12.05;6.88;;;10.70;69.50;;;;;;9178626;19;20023;-68
2024/03/03 03:56:32;;;;;;;13.52;6.90;;;10.60;69.50;;;;;;9178567;19;20015;-69
2024/03/03 03:59:38;;;;;;;12.45;6.75;;;10.70;70.20;;;;;;9178038;19;20046;-68
2024/03/03 04:02:45;;;;;;;13.13;6.95;;;10.60;69.60;;;;;;9175526;19;20029;-65
2024/03/03 04:05:52;;;;;;;14.05;8.23;;;10.60;69.60;;;;;;9175543;19;20461;-65
2024/03/03 04:09:02;;;;;;;12.57;7.22;;;10.60;69.60;;;;;;9172915;19;20045;-64
2024/03/03 04:12:11;;;;;;;11.20;6.90;;;10.60;69.70;;;;;;9173302;19;20018;-65
2024/03/03 04:15:19;;;;;;;13.68;6.85;;;10.60;69.70;;;;;;9175063;19;20014;-65
2024/03/03 04:18:25;;;;;;;13.98;7.43;;;10.60;69.80;;;;;;9175735;19;20020;-64
2024/03/03 04:21:42;;;;;;;13.52;7.30;;;10.50;69.80;;;;;;9175268;19;20018;-64
2024/03/03 04:24:48;;;;;;;13.27;7.65;;;10.60;69.80;;;;;;9175111;19;20018;-64
2024/03/03 04:27:58;;;;;;;16.35;7.53;;;10.50;69.80;;;;;;9182719;19;20483;-65
2024/03/03 04:31:07;;;;;;;12.13;7.25;;;10.50;69.90;;;;;;9181533;19;20113;-65
2024/03/03 04:34:16;;;;;;;14.45;7.80;;;10.50;69.90;;;;;;9184648;19;20487;-65
2024/03/03 04:37:22;;;;;;;14.30;7.20;;;10.50;70.00;;;;;;9179941;19;20467;-65
2024/03/03 04:40:30;;;;;;;11.73;7.03;;;10.50;70.00;;;;;;9184081;19;20025;-65
2024/03/03 04:43:38;;;;;;;14.45;7.80;;;10.50;70.00;;;;;;9184576;19;20515;-65
2024/03/03 04:46:46;;;;;;;14.02;7.72;;;10.40;70.00;;;;;;9184202;19;20019;-64
2024/03/03 04:49:52;;;;;;;13.95;7.20;;;10.40;70.00;;;;;;9184269;19;20363;-65
2024/03/03 04:53:00;;;;;;;13.43;7.18;;;10.40;70.00;;;;;;9184588;19;20022;-65
2024/03/03 04:56:06;;;;;;;13.73;7.57;;;10.40;70.10;;;;;;9183910;19;20542;-64
2024/03/03 04:59:17;;;;;;;15.20;7.25;;;10.40;70.10;;;;;;9182817;19;20022;-66
2024/03/03 05:02:22;;;;;;;17.27;7.25;;;10.40;70.10;;;;;;9184528;19;20405;-64
2024/03/03 05:05:30;;;;;;;14.25;6.90;;;10.30;70.10;;;;;;9181895;19;20029;-64
2024/03/03 05:08:37;;;;;;;15.00;8.02;;;10.30;70.10;;;;;;9175971;19;20038;-65
2024/03/03 05:11:45;;;;;;;16.02;8.75;;;10.30;70.20;;;;;;9181611;19;20536;-66
2024/03/03 05:14:54;;;;;;;12.95;7.85;;;10.30;70.30;;;;;;9182121;19;20097;-65
2024/03/03 05:18:01;;;;;;;13.27;7.43;;;10.20;70.20;;;;;;9181083;19;20018;-65
2024/03/03 05:21:07;;;;;;;15.15;7.68;;;10.20;70.20;;;;;;9182793;19;20018;-65
2024/03/03 05:24:16;;;;;;;15.48;8.40;;;10.20;70.30;;;;;;9181827;19;20025;-65
2024/03/03 05:27:22;;;;;;;17.17;7.38;;;10.20;70.30;;;;;;9182141;19;20078;-65
2024/03/03 05:30:36;;;;;;;11.18;6.88;;;10.20;70.40;;;;;;9181495;19;20495;-64
2024/03/03 05:33:42;;;;;;;14.15;7.28;;;10.10;70.40;;;;;;9182120;19;20021;-64
2024/03/03 05:36:50;;;;;;;14.32;8.07;;;10.10;70.40;;;;;;9179335;19;20476;-64
2024/03/03 05:39:56;;;;;;;12.35;7.55;;;10.10;70.50;;;;;;9180055;19;20391;-65
2024/03/03 05:43:04;;;;;;;14.35;7.63;;;10.10;70.50;;;;;;9182249;19;20019;-64
2024/03/03 05:46:12;;;;;;;14.93;8.73;;;10.10;70.50;;;;;;9181409;19;20030;-64
2024/03/03 05:49:20;;;;;;;19.58;9.02;;;10.10;70.60;;;;;;9181911;19;20017;-68
2024/03/03 05:52:27;;;;;;;16.40;8.25;;;10.00;70.50;;;;;;9180753;19;20074;-68
2024/03/03 05:55:36;;;;;;;16.17;9.02;;;10.00;70.60;;;;;;9183914;19;20062;-69
2024/03/03 05:58:42;;;;;;;13.63;8.52;;;10.00;70.60;;;;;;9182402;19;20356;-68
2024/03/03 06:01:54;;;;;;;17.75;7.60;;;10.00;70.60;;;;;;9182545;19;20022;-69
2024/03/03 06:04:59;;;;;;;12.98;8.45;;;9.90;70.70;;;;;;9175971;19;20037;-71
2024/03/03 06:08:08;;;;;;;16.48;8.55;;;9.90;70.70;;;;;;9174201;19;20026;-69
2024/03/03 06:11:13;;;;;;;14.77;8.20;;;9.90;70.80;;;;;;9177247;19;20372;-69
2024/03/03 06:14:21;;;;;;;15.52;8.55;;;9.80;70.80;;;;;;9175586;19;20491;-69
2024/03/03 06:17:29;;;;;;;15.75;8.80;;;9.80;70.80;;;;;;9177850;19;20015;-69
2024/03/03 06:20:36;;;;;;;16.88;8.95;;;9.80;70.90;;;;;;9178386;19;20014;-69
2024/03/03 06:23:43;;;;;;;14.25;8.55;;;9.80;70.90;;;;;;9176696;19;20468;-69
2024/03/03 06:26:51;;;;;;;21.83;9.07;;;9.80;71.00;;;;;;9177053;19;20758;-69
2024/03/03 06:29:57;;;;;;;16.38;8.90;;;9.70;71.00;;;;;;9177404;19;20010;-69
2024/03/03 06:33:07;;;;;;;15.35;8.77;;;9.70;71.10;;;;;;9174840;19;20644;-69
2024/03/03 06:36:18;;;;;;;13.95;8.13;;;9.70;71.20;;;;;;9177658;19;20018;-67
2024/03/03 06:39:26;;;;;;;15.93;8.63;;;9.70;71.20;;;;;;9175972;19;20026;-68
2024/03/03 06:42:33;;;;;;;19.50;9.68;;;9.70;71.20;;;;;;9176517;19;20021;-69
2024/03/03 06:45:41;;;;;;;15.93;8.43;;;9.70;71.30;;;;;;9176267;19;20471;-69
2024/03/03 06:48:49;;;;;;;15.85;7.93;;;9.70;71.40;;;;;;9173015;19;20077;-69
2024/03/03 06:51:56;;;;;;;16.85;8.93;;;9.70;71.40;;;;;;9175174;19;20368;-69
2024/03/03 06:55:06;;;;;;;19.13;8.57;;;9.70;71.50;;;;;;9173298;19;20592;-69
2024/03/03 06:58:13;;;;;;;20.55;9.00;;;9.70;71.40;;;;;;9175652;19;20015;-68
2024/03/03 07:01:19;;;;;;;14.48;7.93;;;9.70;71.50;;;;;;9172643;19;20026;-70
2024/03/03 07:04:30;;;;;;;17.90;8.60;;;9.70;71.60;;;;;;9175133;19;20032;-69
2024/03/03 07:07:35;;;;;;;18.48;9.27;;;9.70;71.60;;;;;;9172033;19;20786;-68
2024/03/03 07:10:43;;;;;;;16.52;9.43;;;9.70;71.60;;;;;;9176508;19;20476;-69
2024/03/03 07:13:49;;;;;;;15.05;8.32;;;9.80;71.70;;;;;;9172497;19;20015;-69
2024/03/03 07:16:56;;;;;;;16.15;8.30;;;9.70;71.60;;;;;;9175863;19;20038;-69
2024/03/03 07:20:05;;;;;;;16.27;8.73;;;9.80;71.60;;;;;;9175758;19;20018;-69
2024/03/03 07:23:13;;;;;;;15.77;8.45;;;9.70;72.30;;;;;;9173610;19;20037;-69
2024/03/03 07:26:19;;;;;;;15.10;8.80;;;9.70;71.60;;;;;;9175312;19;20097;-69
2024/03/03 07:29:26;;;;;;;16.25;8.77;;;9.80;71.70;;;;;;9175598;19;20741;-68
2024/03/03 07:32:32;;;;;;;18.70;8.40;;;9.80;71.80;;;;;;9173939;19;20062;-69
2024/03/03 07:35:42;;;;;;;17.17;8.63;;;9.80;71.80;;;;;;9174273;19;20025;-69
2024/03/03 07:38:48;;;;;;;17.58;9.48;;;9.80;71.80;;;;;;9171216;19;20016;-69
2024/03/03 07:41:55;;;;;;;15.02;8.50;;;9.80;71.90;;;;;;9174459;19;20041;-68
2024/03/03 07:45:03;;;;;;;17.05;8.27;;;9.80;71.90;;;;;;9174093;19;20101;-69
2024/03/03 07:48:10;;;;;;;16.85;8.68;;;9.80;71.90;;;;;;9173738;19;20022;-69
2024/03/03 07:51:21;;;;;;;18.60;8.80;;;9.80;71.90;;;;;;9173968;19;20014;-68
2024/03/03 07:54:29;;;;;;;17.45;9.07;;;9.80;72.00;;;;;;9173150;19;20014;-69
2024/03/03 07:57:35;;;;;;;20.58;9.23;;;9.90;72.00;;;;;;9172391;19;20026;-69
2024/03/03 08:00:43;;;;;;;19.67;9.50;;;9.90;72.00;;;;;;9177377;19;20022;-69
2024/03/03 08:03:48;;;;;;;15.88;9.10;;;9.90;72.10;;;;;;9180042;19;20360;-68
2024/03/03 08:06:59;;;;;;;18.65;9.20;;;9.90;72.10;;;;;;9178021;19;20047;-69
2024/03/03 08:10:05;;;;;;;16.83;8.85;;;9.90;72.10;;;;;;9183250;19;20150;-69
2024/03/03 08:13:13;;;;;;;16.98;9.27;;;10.00;72.20;;;;;;9179795;19;20014;-68
2024/03/03 08:16:19;;;;;;;17.90;9.80;;;10.00;72.20;;;;;;9180914;19;20016;-67
2024/03/03 08:19:27;;;;;;;17.10;9.48;;;10.00;72.30;;;;;;9177002;19;20017;-69
2024/03/03 08:22:36;;;;;;;17.90;8.80;;;10.10;73.10;;;;;;9176985;19;20015;-68
2024/03/03 08:25:43;;;;;;;17.10;9.13;;;10.10;72.40;;;;;;9175418;19;20010;-68
2024/03/03 08:28:49;;;;;;;17.08;9.27;;;10.20;72.50;;;;;;9178589;19;20039;-69
2024/03/03 08:31:56;;;;;;;16.65;9.13;;;10.20;72.60;;;;;;9180747;19;20011;-69
2024/03/03 08:35:03;;;;;;;20.23;9.65;;;10.30;72.60;;;;;;9180326;19;20464;-69
2024/03/03 08:38:13;;;;;;;17.00;9.35;;;10.40;72.70;;;;;;9175460;19;20029;-68
2024/03/03 08:41:18;;;;;;;17.33;9.48;;;10.40;72.70;;;;;;9180731;19;20030;-67
2024/03/03 08:44:26;;;;;;;21.00;9.68;;;10.50;72.70;;;;;;9180407;19;20026;-71
2024/03/03 08:47:31;;;;;;;16.90;9.07;;;10.60;72.70;;;;;;9181686;19;20011;-68
2024/03/03 08:50:39;;;;;;;14.73;8.80;;;10.70;72.80;;;;;;9181167;19;20018;-69
2024/03/03 08:53:47;;;;;;;14.30;7.75;;;10.80;73.40;;;;;;9178222;19;20047;-68
2024/03/03 08:56:54;;;;;;;13.45;8.10;;;10.80;72.70;;;;;;9181719;19;20018;-69
2024/03/03 09:00:01;;;;;;;21.80;10.02;;;10.90;72.70;;;;;;9180413;19;20010;-70
2024/03/03 09:03:09;;;;;;;16.50;9.23;;;11.00;72.70;;;;;;9179570;19;20049;-67
2024/03/03 09:06:14;;;;;;;16.02;9.30;;;11.10;72.70;;;;;;9181363;19;20015;-68
2024/03/03 09:09:24;;;;;;;16.10;8.35;;;11.20;72.70;;;;;;9180051;19;20026;-68
2024/03/03 09:12:30;;;;;;;17.63;8.77;;;11.30;72.70;;;;;;9176533;19;20021;-69
2024/03/03 09:15:37;;;;;;;16.10;8.85;;;11.40;72.70;;;;;;9180517;19;20007;-69
2024/03/03 09:18:44;;;;;;;17.10;9.25;;;11.50;72.70;;;;;;9175565;19;20116;-70
2024/03/03 09:21:52;;;;;;;13.98;8.77;;;11.70;72.70;;;;;;9176993;19;20037;-69
2024/03/03 09:25:00;;;;;;;12.95;7.68;;;11.80;72.70;;;;;;9179886;19;20022;-70
2024/03/03 09:28:09;;;;;;;12.90;8.35;;;11.90;72.60;;;;;;9179313;19;20034;-70
2024/03/03 09:31:16;;;;;;;15.45;9.00;;;12.00;72.50;;;;;;9179901;19;20014;-70
2024/03/03 09:34:24;;;;;;;14.77;8.68;;;12.10;72.50;;;;;;9178234;19;20015;-71
2024/03/03 09:37:30;;;;;;;18.20;9.10;;;12.20;72.40;;;;;;9175741;19;20018;-70
2024/03/03 09:40:40;;;;;;;16.45;8.30;;;12.30;72.40;;;;;;9179238;19;20021;-71
2024/03/03 09:43:50;;;;;;;16.45;8.35;;;12.40;72.30;;;;;;9179262;19;20081;-70
2024/03/03 09:46:59;;;;;;;16.88;8.32;;;12.50;72.30;;;;;;9178750;19;20360;-70
2024/03/03 09:50:06;;;;;;;14.85;7.90;;;12.60;72.90;;;;;;9174930;19;20011;-71
2024/03/03 09:53:15;;;;;;;16.83;8.02;;;12.70;72.20;;;;;;9178181;19;20022;-70
2024/03/03 09:56:24;;;;;;;16.33;8.18;;;12.80;72.70;;;;;;9178713;19;20042;-70
2024/03/03 09:59:32;;;;;;;13.50;8.10;;;12.90;72.00;;;;;;9178860;19;20145;-71
2024/03/03 10:02:40;;;;;;;15.80;7.78;;;13.10;72.00;;;;;;9177116;19;20486;-68
2024/03/03 10:05:48;;;;;;;13.23;7.60;;;13.10;71.90;;;;;;9178912;19;20015;-68
2024/03/03 10:08:59;;;;;;;21.50;7.68;;;13.30;71.90;;;;;;9174101;19;20023;-67
2024/03/03 10:12:12;;;;;;;13.32;7.57;;;13.40;72.30;;;;;;9178098;19;20516;-69
2024/03/03 10:15:18;;;;;;;13.18;7.68;;;13.50;71.50;;;;;;9175527;19;20015;-68
2024/03/03 10:18:26;;;;;;;15.35;7.45;;;13.50;71.40;;;;;;9177964;19;20022;-69
2024/03/03 10:21:36;;;;;;;14.05;7.57;;;13.60;71.30;;;;;;9176350;19;20010;-68
2024/03/03 10:24:43;;;;;;;14.18;7.95;;;13.70;71.20;;;;;;9176780;19;20360;-71
2024/03/03 10:27:52;;;;;;;13.70;8.70;;;13.70;71.20;;;;;;9177476;19;20557;-69
2024/03/03 10:31:15;;;;;;;19.05;8.05;;;13.80;71.00;;;;;;9177897;19;20025;-68
2024/03/03 10:34:21;;;;;;;17.92;8.18;;;13.80;70.90;;;;;;9176078;19;20464;-68
2024/03/03 10:37:30;;;;;;;18.08;9.02;;;13.80;71.00;;;;;;9174597;19;20022;-69
2024/03/03 10:40:35;;;;;;;15.23;7.70;;;13.90;71.00;;;;;;9176827;19;20368;-69
2024/03/03 10:43:46;;;;;;;18.80;8.57;;;14.00;71.00;;;;;;9176221;19;20015;-69
2024/03/03 10:46:52;;;;;;;13.25;8.00;;;14.00;71.00;;;;;;9176644;19;20021;-69
2024/03/03 10:49:59;;;;;;;16.52;9.38;;;14.20;71.00;;;;;;9175785;19;20018;-69
2024/03/03 10:53:05;;;;;;;18.35;9.05;;;14.30;71.10;;;;;;9177051;19;20021;-69
2024/03/03 10:56:15;;;;;;;16.73;9.10;;;14.40;71.00;;;;;;9173934;19;20022;-69
2024/03/03 10:59:24;;;;;;;14.90;8.50;;;14.60;71.00;;;;;;9176416;19;20011;-68
2024/03/03 11:02:36;;;;;;;11.55;7.30;;;14.80;70.90;;;;;;9176658;19;20022;-69
2024/03/03 11:05:43;;;;;;;13.70;8.15;;;15.00;70.90;;;;;;9173856;19;20477;-69
2024/03/03 11:08:52;;;;;;;14.40;7.88;;;15.20;70.60;;;;;;9171575;19;20014;-69
2024/03/03 11:12:00;;;;;;;13.55;7.65;;;15.30;70.40;;;;;;9176322;19;20028;-69
2024/03/03 11:15:14;;;;;;;13.90;7.90;;;15.50;70.30;;;;;;9172129;19;20011;-69
2024/03/03 11:18:24;;;;;;;19.55;10.32;;;15.60;70.00;;;;;;9173397;19;20094;-69
2024/03/03 11:21:38;;;;;;;16.02;8.18;;;15.70;70.00;;;;;;9174639;19;20054;-69
2024/03/03 11:24:46;;;;;;;15.90;7.70;;;15.80;69.80;;;;;;9174651;19;20479;-69
2024/03/03 11:27:59;;;;;;;15.77;8.10;;;15.90;69.70;;;;;;9175528;19;20018;-69
2024/03/03 11:31:07;;;;;;;16.83;8.75;;;16.00;69.60;;;;;;9176126;19;20021;-69
2024/03/03 11:34:16;;;;;;;14.60;8.40;;;16.10;69.50;;;;;;9173492;19;20018;-68
2024/03/03 11:37:23;;;;;;;14.60;8.35;;;16.10;69.40;;;;;;9171514;19;20043;-69
2024/03/03 11:40:31;;;;;;;12.10;7.13;;;16.20;69.40;;;;;;9173436;19;20018;-69
2024/03/03 11:43:37;;;;;;;13.95;7.18;;;16.30;69.40;;;;;;9174729;19;20360;-69
2024/03/03 11:46:51;;;;;;;15.20;8.02;;;16.40;69.30;;;;;;9174192;19;20353;-69
2024/03/03 11:49:57;;;;;;;18.17;8.70;;;16.50;69.10;;;;;;9174733;19;20070;-69
2024/03/03 11:53:05;;;;;;;14.07;7.50;;;16.70;69.20;;;;;;9174902;19;20018;-69
2024/03/03 11:56:20;;;;;;;11.10;7.32;;;16.90;69.10;;;;;;9171285;19;20029;-69
2024/03/03 11:59:32;;;;;;;16.88;7.18;;;17.10;68.70;;;;;;9174323;19;20033;-69
2024/03/03 12:02:41;;;;;;;13.57;7.35;;;17.20;68.60;;;;;;9174583;19;20018;-69
2024/03/03 12:05:50;;;;;;;14.60;7.95;;;17.30;68.40;;;;;;9175030;19;20272;-69
2024/03/03 12:08:56;;;;;;;12.40;7.25;;;17.50;68.40;;;;;;9168906;19;20010;-69
2024/03/03 12:12:04;;;;;;;16.10;8.00;;;17.70;68.30;;;;;;9174420;19;20028;-72
2024/03/03 12:15:12;;;;;;;12.63;7.30;;;17.80;68.00;;;;;;9172387;19;20022;-70
2024/03/03 12:18:25;;;;;;;11.82;7.40;;;17.90;67.80;;;;;;9173263;19;20021;-70
2024/03/03 12:21:30;;;;;;;20.55;8.13;;;18.00;67.50;;;;;;9173506;19;20018;-70
2024/03/03 12:24:42;;;;;;;10.55;6.28;;;18.10;67.40;;;;;;9171879;19;20029;-69
2024/03/03 12:27:52;;;;;;;13.77;7.40;;;18.20;67.20;;;;;;9172585;19;20014;-69
2024/03/03 12:31:00;;;;;;;11.38;6.40;;;18.30;67.00;;;;;;9173035;19;20037;-69
2024/03/03 12:34:09;;;;;;;14.93;6.70;;;18.40;67.10;;;;;;9170672;19;20018;-69
2024/03/03 12:37:16;;;;;;;11.75;6.85;;;18.50;66.80;;;;;;9171568;19;20015;-68
2024/03/03 12:40:22;;;;;;;15.07;7.25;;;18.60;66.70;;;;;;9170753;19;20078;-69
2024/03/03 12:43:30;;;;;;;10.35;6.10;;;18.60;66.50;;;;;;9172460;19;20018;-69
2024/03/03 12:46:40;;;;;;;12.00;6.40;;;18.70;66.50;;;;;;9170233;19;20011;-69
2024/03/03 12:49:50;;;;;;;13.43;6.80;;;18.80;66.30;;;;;;9181319;19;20022;-68
2024/03/03 12:52:56;;;;;;;11.07;6.47;;;18.90;65.90;;;;;;9181990;19;20015;-69
2024/03/03 12:56:19;;;;;;;10.40;6.15;;;19.00;65.90;;;;;;9178736;19;20378;-69
2024/03/03 12:59:24;;;;;;;12.88;6.50;;;19.00;65.30;;;;;;9181352;19;20018;-69
2024/03/03 13:02:32;;;;;;;9.60;5.88;;;19.00;65.50;;;;;;9179649;19;20019;-69
2024/03/03 13:05:41;;;;;;;11.68;6.28;;;19.00;65.30;;;;;;9178941;19;20018;-70
2024/03/03 13:08:51;;;;;;;14.48;6.25;;;19.00;65.00;;;;;;9176207;19;20022;-69
2024/03/03 13:11:57;;;;;;;13.13;5.85;;;19.00;64.90;;;;;;9180045;19;20038;-69
2024/03/03 13:15:06;;;;;;;10.02;6.18;;;18.90;64.80;;;;;;9180729;19;20010;-69
2024/03/03 13:18:17;;;;;;;12.93;7.20;;;18.80;64.70;;;;;;9181182;19;20522;-68
2024/03/03 13:21:28;;;;;;;12.80;7.40;;;18.70;64.70;;;;;;9179926;19;20014;-71
2024/03/03 13:24:34;;;;;;;11.75;7.15;;;18.60;64.60;;;;;;9178491;19;20106;-69
2024/03/03 13:27:41;;;;;;;12.45;7.18;;;18.50;64.70;;;;;;9165776;19;20023;-69
2024/03/03 13:30:58;;;;;;;19.08;7.40;;;18.40;64.70;;;;;;9167562;19;20022;-68
2024/03/03 13:34:06;;;;;;;15.48;8.13;;;18.30;64.40;;;;;;9163455;19;20014;-69
2024/03/03 13:37:15;;;;;;;11.48;7.43;;;18.20;64.70;;;;;;9164048;19;20021;-69
2024/03/03 13:40:23;;;;;;;14.77;8.07;;;18.10;64.60;;;;;;9171929;19;20030;-69
2024/03/03 13:43:28;;;;;;;11.07;7.00;;;18.00;64.70;;;;;;9178317;19;20015;-68
2024/03/03 13:46:36;;;;;;;13.63;7.30;;;17.90;64.70;;;;;;9177316;19;20018;-70
2024/03/03 13:49:42;;;;;;;14.43;7.72;;;17.90;64.80;;;;;;9178375;19;20014;-69
2024/03/03 13:52:52;;;;;;;12.40;7.47;;;17.80;64.80;;;;;;9177357;19;20023;-70
2024/03/03 13:56:02;;;;;;;17.77;7.57;;;17.70;64.80;;;;;;9172713;19;20022;-70
2024/03/03 13:59:12;;;;;;;14.63;7.63;;;17.60;64.80;;;;;;9177348;19;20026;-69
2024/03/03 14:02:17;;;;;;;15.02;7.88;;;17.50;64.80;;;;;;9178150;19;20022;-70
2024/03/03 14:05:25;;;;;;;15.95;7.50;;;17.40;64.90;;;;;;9177454;19;20015;-69
2024/03/03 14:08:34;;;;;;;19.83;8.55;;;17.40;65.00;;;;;;9169647;19;20022;-69
2024/03/03 14:11:41;;;;;;;13.95;7.63;;;17.30;64.90;;;;;;9178719;19;20010;-70
2024/03/03 14:14:47;;;;;;;20.00;7.90;;;17.30;65.00;;;;;;9177245;19;20014;-72
2024/03/03 14:17:55;;;;;;;10.10;5.68;;;17.30;65.00;;;;;;9178047;19;20018;-69
2024/03/03 14:21:00;;;;;;;9.88;5.75;;;17.20;64.90;;;;;;9176740;19;21091;-68
2024/03/03 14:24:10;;;;;;;16.17;5.78;;;17.20;64.90;;;;;;9177604;19;20018;-68
2024/03/03 14:27:36;;;;;;;10.88;6.40;;;17.20;64.80;;;;;;9174766;19;20488;-68
2024/03/03 14:30:44;;;;;;;13.27;5.75;;;17.10;64.80;;;;;;9175580;19;20010;-69
2024/03/03 14:33:50;;;;;;;10.55;6.57;;;17.10;64.80;;;;;;9176177;19;20010;-69
2024/03/03 14:36:59;;;;;;;16.27;7.65;;;17.10;64.80;;;;;;9174597;19;20018;-69
2024/03/03 14:40:13;;;;;;;13.02;7.43;;;17.10;64.80;;;;;;9177657;19;20089;-68
2024/03/03 14:43:21;;;;;;;17.02;7.63;;;17.10;64.70;;;;;;9176106;19;20026;-68
2024/03/03 14:46:27;;;;;;;13.95;7.82;;;17.10;64.90;;;;;;9175333;19;20046;-69
2024/03/03 14:49:34;;;;;;;14.70;7.78;;;17.10;64.90;;;;;;9177533;19;20415;-68
2024/03/03 14:52:40;;;;;;;21.27;8.55;;;17.10;64.90;;;;;;9179332;19;20340;-69
2024/03/03 14:55:50;;;;;;;17.40;8.63;;;17.10;64.90;;;;;;9177088;19;20025;-69
2024/03/03 14:58:56;;;;;;;15.23;8.18;;;17.10;64.90;;;;;;9175532;19;20006;-69
2024/03/03 15:02:03;;;;;;;15.57;8.60;;;17.00;65.00;;;;;;9176715;19;20026;-69
2024/03/03 15:05:10;;;;;;;16.63;8.80;;;17.00;65.00;;;;;;9176134;19;20018;-69
2024/03/03 15:08:17;;;;;;;17.15;7.97;;;17.10;65.10;;;;;;9167964;19;20022;-69
2024/03/03 15:11:26;;;;;;;16.15;8.18;;;17.10;65.10;;;;;;9175178;19;20743;-69
2024/03/03 15:14:33;;;;;;;12.52;6.93;;;17.10;65.00;;;;;;9175412;19;20020;-69
2024/03/03 15:17:39;;;;;;;13.82;7.50;;;17.10;65.00;;;;;;9175741;19;20858;-69
2024/03/03 15:20:46;;;;;;;12.52;7.63;;;17.10;65.00;;;;;;9173648;19;20014;-68
2024/03/03 15:23:52;;;;;;;15.90;8.20;;;17.00;64.90;;;;;;9175885;19;20014;-69
2024/03/03 15:27:03;;;;;;;16.15;8.25;;;17.10;65.00;;;;;;9172364;19;20059;-69
2024/03/03 15:30:10;;;;;;;14.98;8.48;;;17.10;65.00;;;;;;9173840;19;20030;-69
2024/03/03 15:33:18;;;;;;;13.65;7.80;;;17.10;65.00;;;;;;9175012;19;20018;-70
2024/03/03 15:36:24;;;;;;;19.77;9.52;;;17.10;65.10;;;;;;9174664;19;20021;-69
2024/03/03 15:39:31;;;;;;;15.85;9.40;;;17.10;65.10;;;;;;9174691;19;20379;-70
2024/03/03 15:42:44;;;;;;;13.40;8.55;;;17.00;65.10;;;;;;9174379;19;20010;-69
2024/03/03 15:45:52;;;;;;;17.63;9.23;;;17.00;65.00;;;;;;9174846;19;20014;-69
2024/03/03 15:48:58;;;;;;;19.13;9.80;;;17.00;65.10;;;;;;9171830;19;20006;-69
2024/03/03 15:52:05;;;;;;;21.63;10.00;;;17.00;65.80;;;;;;9174180;19;20011;-69
2024/03/03 15:55:11;;;;;;;20.38;10.43;;;17.00;65.30;;;;;;9174074;19;20018;-69
2024/03/03 15:58:21;;;;;;;20.27;10.15;;;17.00;65.30;;;;;;9173925;19;20022;-68
2024/03/03 16:01:27;;;;;;;19.65;9.65;;;16.90;65.20;;;;;;9173841;19;20042;-69
2024/03/03 16:04:35;;;;;;;19.98;10.05;;;16.90;65.30;;;;;;9174203;19;20021;-69
2024/03/03 16:07:40;;;;;;;21.80;10.98;;;16.80;65.20;;;;;;9168787;19;20011;-69